sensor_id;sensor_type;location;lat;lon;timestamp;P1;durP1;ratioP1;P2;durP2;ratioP2
64595;SDS011;51003;51.628;6.670;2023-05-24T00:02:06;4.73;;;2.07;;
64595;SDS011;51003;51.628;6.670;2023-05-24T00:04:32;8.63;;;2.37;;
64595;SDS011;51003;51.628;6.670;2023-05-24T00:06:58;2.63;;;1.93;;
64595;SDS011;51003;51.628;6.670;2023-05-24T00:09:27;5.23;;;2.00;;
64595;SDS011;51003;51.628;6.670;2023-05-24T00:11:55;11.63;;;2.30;;
64595;SDS011;51003;51.628;6.670;2023-05-24T00:14:20;12.40;;;2.43;;
64595;SDS011;51003;51.628;6.670;2023-05-24T00:16:46;7.70;;;3.07;;
64595;SDS011;51003;51.628;6.670;2023-05-24T00:19:11;8.77;;;2.10;;
64595;SDS011;51003;51.628;6.670;2023-05-24T00:21:42;2.77;;;1.90;;
64595;SDS011;51003;51.628;6.670;2023-05-24T00:24:07;6.23;;;2.60;;
64595;SDS011;51003;51.628;6.670;2023-05-24T00:26:35;7.57;;;2.27;;
64595;SDS011;51003;51.628;6.670;2023-05-24T00:29:01;6.70;;;2.43;;
64595;SDS011;51003;51.628;6.670;2023-05-24T00:31:26;7.10;;;2.87;;
64595;SDS011;51003;51.628;6.670;2023-05-24T00:33:51;7.10;;;2.40;;
64595;SDS011;51003;51.628;6.670;2023-05-24T00:36:17;4.43;;;2.40;;
64595;SDS011;51003;51.628;6.670;2023-05-24T00:38:42;5.43;;;2.60;;
64595;SDS011;51003;51.628;6.670;2023-05-24T00:41:07;6.60;;;2.20;;
64595;SDS011;51003;51.628;6.670;2023-05-24T00:43:33;5.40;;;2.40;;
64595;SDS011;51003;51.628;6.670;2023-05-24T00:48:40;5.67;;;2.27;;
64595;SDS011;51003;51.628;6.670;2023-05-24T00:51:06;7.20;;;2.57;;
64595;SDS011;51003;51.628;6.670;2023-05-24T00:53:32;7.90;;;2.57;;
64595;SDS011;51003;51.628;6.670;2023-05-24T00:55:57;6.53;;;2.77;;
64595;SDS011;51003;51.628;6.670;2023-05-24T00:58:24;5.83;;;3.07;;
64595;SDS011;51003;51.628;6.670;2023-05-24T01:00:55;7.63;;;2.70;;
64595;SDS011;51003;51.628;6.670;2023-05-24T01:03:23;8.60;;;3.33;;
64595;SDS011;51003;51.628;6.670;2023-05-24T01:05:49;8.30;;;2.67;;
64595;SDS011;51003;51.628;6.670;2023-05-24T01:08:21;6.93;;;2.80;;
64595;SDS011;51003;51.628;6.670;2023-05-24T01:19:19;9.07;;;2.90;;
64595;SDS011;51003;51.628;6.670;2023-05-24T01:23:04;9.80;;;3.23;;
64595;SDS011;51003;51.628;6.670;2023-05-24T01:25:08;5.73;;;2.33;;
64595;SDS011;51003;51.628;6.670;2023-05-24T01:27:37;7.70;;;2.77;;
64595;SDS011;51003;51.628;6.670;2023-05-24T01:30:03;5.03;;;2.97;;
64595;SDS011;51003;51.628;6.670;2023-05-24T01:32:28;9.70;;;2.73;;
64595;SDS011;51003;51.628;6.670;2023-05-24T01:34:54;6.07;;;2.63;;
64595;SDS011;51003;51.628;6.670;2023-05-24T01:37:19;13.13;;;2.60;;
64595;SDS011;51003;51.628;6.670;2023-05-24T01:39:45;5.80;;;2.40;;
64595;SDS011;51003;51.628;6.670;2023-05-24T01:50:13;7.37;;;2.70;;
64595;SDS011;51003;51.628;6.670;2023-05-24T01:52:43;5.53;;;2.60;;
64595;SDS011;51003;51.628;6.670;2023-05-24T01:55:10;5.10;;;2.20;;
64595;SDS011;51003;51.628;6.670;2023-05-24T01:57:37;8.03;;;2.60;;
64595;SDS011;51003;51.628;6.670;2023-05-24T02:00:05;4.50;;;2.70;;
64595;SDS011;51003;51.628;6.670;2023-05-24T02:02:32;12.03;;;2.47;;
64595;SDS011;51003;51.628;6.670;2023-05-24T02:04:57;5.20;;;2.70;;
64595;SDS011;51003;51.628;6.670;2023-05-24T02:07:23;5.50;;;2.43;;
64595;SDS011;51003;51.628;6.670;2023-05-24T02:09:48;5.47;;;2.50;;
64595;SDS011;51003;51.628;6.670;2023-05-24T02:12:13;6.43;;;2.20;;
64595;SDS011;51003;51.628;6.670;2023-05-24T02:14:39;9.10;;;2.70;;
64595;SDS011;51003;51.628;6.670;2023-05-24T02:17:06;6.90;;;2.53;;
64595;SDS011;51003;51.628;6.670;2023-05-24T02:19:33;3.63;;;2.27;;
64595;SDS011;51003;51.628;6.670;2023-05-24T02:22:00;3.73;;;2.23;;
64595;SDS011;51003;51.628;6.670;2023-05-24T02:24:26;6.27;;;2.27;;
64595;SDS011;51003;51.628;6.670;2023-05-24T02:26:51;5.13;;;2.63;;
64595;SDS011;51003;51.628;6.670;2023-05-24T02:29:17;5.20;;;2.23;;
64595;SDS011;51003;51.628;6.670;2023-05-24T02:31:42;7.20;;;2.93;;
64595;SDS011;51003;51.628;6.670;2023-05-24T02:34:07;8.53;;;3.00;;
64595;SDS011;51003;51.628;6.670;2023-05-24T02:36:33;4.07;;;2.53;;
64595;SDS011;51003;51.628;6.670;2023-05-24T02:39:00;4.47;;;2.50;;
64595;SDS011;51003;51.628;6.670;2023-05-24T02:41:26;6.30;;;2.93;;
64595;SDS011;51003;51.628;6.670;2023-05-24T02:43:51;5.13;;;2.73;;
64595;SDS011;51003;51.628;6.670;2023-05-24T02:46:16;7.63;;;2.73;;
64595;SDS011;51003;51.628;6.670;2023-05-24T02:48:42;6.67;;;2.60;;
64595;SDS011;51003;51.628;6.670;2023-05-24T02:51:07;6.80;;;2.93;;
64595;SDS011;51003;51.628;6.670;2023-05-24T02:53:32;7.23;;;2.60;;
64595;SDS011;51003;51.628;6.670;2023-05-24T02:55:58;12.17;;;2.90;;
64595;SDS011;51003;51.628;6.670;2023-05-24T02:58:24;6.23;;;3.00;;
64595;SDS011;51003;51.628;6.670;2023-05-24T03:00:53;7.03;;;3.10;;
64595;SDS011;51003;51.628;6.670;2023-05-24T03:03:18;4.80;;;2.73;;
64595;SDS011;51003;51.628;6.670;2023-05-24T03:05:44;13.83;;;3.50;;
64595;SDS011;51003;51.628;6.670;2023-05-24T03:08:09;11.80;;;3.07;;
64595;SDS011;51003;51.628;6.670;2023-05-24T03:10:34;7.47;;;3.63;;
64595;SDS011;51003;51.628;6.670;2023-05-24T03:13:00;5.10;;;2.70;;
64595;SDS011;51003;51.628;6.670;2023-05-24T03:15:25;3.83;;;2.93;;
64595;SDS011;51003;51.628;6.670;2023-05-24T03:17:50;7.37;;;3.13;;
64595;SDS011;51003;51.628;6.670;2023-05-24T03:20:16;10.80;;;2.93;;
64595;SDS011;51003;51.628;6.670;2023-05-24T03:22:41;6.07;;;3.00;;
64595;SDS011;51003;51.628;6.670;2023-05-24T03:25:07;6.80;;;2.87;;
64595;SDS011;51003;51.628;6.670;2023-05-24T03:27:33;6.60;;;2.80;;
64595;SDS011;51003;51.628;6.670;2023-05-24T03:29:59;8.83;;;2.90;;
64595;SDS011;51003;51.628;6.670;2023-05-24T03:32:25;6.27;;;2.70;;
64595;SDS011;51003;51.628;6.670;2023-05-24T03:34:50;4.50;;;2.70;;
64595;SDS011;51003;51.628;6.670;2023-05-24T03:37:16;4.00;;;2.30;;
64595;SDS011;51003;51.628;6.670;2023-05-24T03:39:42;5.20;;;3.03;;
64595;SDS011;51003;51.628;6.670;2023-05-24T03:42:07;5.07;;;2.90;;
64595;SDS011;51003;51.628;6.670;2023-05-24T03:44:33;7.23;;;2.80;;
64595;SDS011;51003;51.628;6.670;2023-05-24T03:46:58;8.30;;;3.20;;
64595;SDS011;51003;51.628;6.670;2023-05-24T03:49:24;5.73;;;3.20;;
64595;SDS011;51003;51.628;6.670;2023-05-24T03:51:49;7.20;;;3.00;;
64595;SDS011;51003;51.628;6.670;2023-05-24T03:54:14;5.90;;;3.00;;
64595;SDS011;51003;51.628;6.670;2023-05-24T03:56:41;8.90;;;3.60;;
64595;SDS011;51003;51.628;6.670;2023-05-24T03:59:07;6.03;;;2.63;;
64595;SDS011;51003;51.628;6.670;2023-05-24T04:01:32;7.90;;;3.20;;
64595;SDS011;51003;51.628;6.670;2023-05-24T04:03:58;8.77;;;3.00;;
64595;SDS011;51003;51.628;6.670;2023-05-24T04:06:23;6.43;;;2.90;;
64595;SDS011;51003;51.628;6.670;2023-05-24T04:08:59;10.83;;;3.00;;
64595;SDS011;51003;51.628;6.670;2023-05-24T04:11:25;7.97;;;3.00;;
64595;SDS011;51003;51.628;6.670;2023-05-24T04:13:52;4.70;;;3.03;;
64595;SDS011;51003;51.628;6.670;2023-05-24T04:16:20;7.93;;;3.17;;
64595;SDS011;51003;51.628;6.670;2023-05-24T04:18:48;12.07;;;3.50;;
64595;SDS011;51003;51.628;6.670;2023-05-24T04:21:14;9.50;;;3.07;;
64595;SDS011;51003;51.628;6.670;2023-05-24T04:23:39;11.87;;;3.10;;
64595;SDS011;51003;51.628;6.670;2023-05-24T04:26:05;10.23;;;3.40;;
64595;SDS011;51003;51.628;6.670;2023-05-24T04:28:31;12.07;;;3.53;;
64595;SDS011;51003;51.628;6.670;2023-05-24T04:30:57;5.50;;;2.57;;
64595;SDS011;51003;51.628;6.670;2023-05-24T04:33:23;8.53;;;3.00;;
64595;SDS011;51003;51.628;6.670;2023-05-24T04:35:48;13.97;;;3.30;;
64595;SDS011;51003;51.628;6.670;2023-05-24T04:38:13;7.77;;;3.40;;
64595;SDS011;51003;51.628;6.670;2023-05-24T04:40:39;6.63;;;2.67;;
64595;SDS011;51003;51.628;6.670;2023-05-24T04:43:05;5.80;;;2.87;;
64595;SDS011;51003;51.628;6.670;2023-05-24T04:45:31;9.50;;;3.10;;
64595;SDS011;51003;51.628;6.670;2023-05-24T04:47:57;8.00;;;3.20;;
64595;SDS011;51003;51.628;6.670;2023-05-24T04:50:23;6.60;;;2.67;;
64595;SDS011;51003;51.628;6.670;2023-05-24T04:52:48;7.87;;;3.20;;
64595;SDS011;51003;51.628;6.670;2023-05-24T04:55:14;8.83;;;3.50;;
64595;SDS011;51003;51.628;6.670;2023-05-24T04:57:39;9.70;;;3.40;;
64595;SDS011;51003;51.628;6.670;2023-05-24T05:00:05;8.37;;;3.33;;
64595;SDS011;51003;51.628;6.670;2023-05-24T05:02:32;10.03;;;3.50;;
64595;SDS011;51003;51.628;6.670;2023-05-24T05:04:57;8.00;;;2.93;;
64595;SDS011;51003;51.628;6.670;2023-05-24T05:07:22;10.50;;;3.30;;
64595;SDS011;51003;51.628;6.670;2023-05-24T05:09:48;10.07;;;3.90;;
64595;SDS011;51003;51.628;6.670;2023-05-24T05:12:13;6.60;;;2.80;;
64595;SDS011;51003;51.628;6.670;2023-05-24T05:14:39;12.83;;;3.57;;
64595;SDS011;51003;51.628;6.670;2023-05-24T05:17:04;19.97;;;3.70;;
64595;SDS011;51003;51.628;6.670;2023-05-24T05:19:29;8.80;;;3.37;;
64595;SDS011;51003;51.628;6.670;2023-05-24T05:21:55;18.67;;;4.73;;
64595;SDS011;51003;51.628;6.670;2023-05-24T05:24:20;11.33;;;3.77;;
64595;SDS011;51003;51.628;6.670;2023-05-24T05:26:46;16.70;;;4.60;;
64595;SDS011;51003;51.628;6.670;2023-05-24T05:29:11;17.17;;;3.90;;
64595;SDS011;51003;51.628;6.670;2023-05-24T05:31:36;11.83;;;3.90;;
64595;SDS011;51003;51.628;6.670;2023-05-24T05:34:03;14.53;;;3.70;;
64595;SDS011;51003;51.628;6.670;2023-05-24T05:36:29;12.40;;;4.10;;
64595;SDS011;51003;51.628;6.670;2023-05-24T05:38:54;18.17;;;4.13;;
64595;SDS011;51003;51.628;6.670;2023-05-24T05:41:19;16.33;;;3.90;;
64595;SDS011;51003;51.628;6.670;2023-05-24T05:43:46;13.33;;;4.00;;
64595;SDS011;51003;51.628;6.670;2023-05-24T05:46:11;14.97;;;4.67;;
64595;SDS011;51003;51.628;6.670;2023-05-24T05:48:39;13.63;;;3.90;;
64595;SDS011;51003;51.628;6.670;2023-05-24T05:51:04;13.63;;;3.67;;
64595;SDS011;51003;51.628;6.670;2023-05-24T05:53:32;13.23;;;3.80;;
64595;SDS011;51003;51.628;6.670;2023-05-24T05:55:58;11.03;;;3.53;;
64595;SDS011;51003;51.628;6.670;2023-05-24T05:58:23;25.40;;;4.17;;
64595;SDS011;51003;51.628;6.670;2023-05-24T06:00:48;14.60;;;3.60;;
64595;SDS011;51003;51.628;6.670;2023-05-24T06:03:14;14.63;;;3.60;;
64595;SDS011;51003;51.628;6.670;2023-05-24T06:05:40;26.13;;;4.13;;
64595;SDS011;51003;51.628;6.670;2023-05-24T06:08:05;18.37;;;4.43;;
64595;SDS011;51003;51.628;6.670;2023-05-24T06:10:31;24.43;;;4.30;;
64595;SDS011;51003;51.628;6.670;2023-05-24T06:12:56;9.03;;;3.23;;
64595;SDS011;51003;51.628;6.670;2023-05-24T06:15:21;15.77;;;3.67;;
64595;SDS011;51003;51.628;6.670;2023-05-24T06:17:47;11.93;;;3.50;;
64595;SDS011;51003;51.628;6.670;2023-05-24T06:20:13;12.17;;;3.83;;
64595;SDS011;51003;51.628;6.670;2023-05-24T06:22:40;13.63;;;3.77;;
64595;SDS011;51003;51.628;6.670;2023-05-24T06:25:06;12.30;;;3.47;;
64595;SDS011;51003;51.628;6.670;2023-05-24T06:27:32;11.50;;;3.23;;
64595;SDS011;51003;51.628;6.670;2023-05-24T06:29:58;13.67;;;4.50;;
64595;SDS011;51003;51.628;6.670;2023-05-24T06:32:23;12.33;;;4.00;;
64595;SDS011;51003;51.628;6.670;2023-05-24T06:34:48;11.30;;;3.67;;
64595;SDS011;51003;51.628;6.670;2023-05-24T06:37:14;8.13;;;3.43;;
64595;SDS011;51003;51.628;6.670;2023-05-24T06:39:40;11.73;;;3.70;;
64595;SDS011;51003;51.628;6.670;2023-05-24T06:42:05;9.87;;;3.20;;
64595;SDS011;51003;51.628;6.670;2023-05-24T06:44:31;11.87;;;3.80;;
64595;SDS011;51003;51.628;6.670;2023-05-24T06:46:59;11.90;;;3.43;;
64595;SDS011;51003;51.628;6.670;2023-05-24T06:49:26;12.00;;;4.50;;
64595;SDS011;51003;51.628;6.670;2023-05-24T06:51:52;12.53;;;4.40;;
64595;SDS011;51003;51.628;6.670;2023-05-24T06:54:18;9.10;;;3.00;;
64595;SDS011;51003;51.628;6.670;2023-05-24T06:56:43;13.97;;;3.40;;
64595;SDS011;51003;51.628;6.670;2023-05-24T06:59:10;8.30;;;2.93;;
64595;SDS011;51003;51.628;6.670;2023-05-24T07:01:35;10.97;;;3.17;;
64595;SDS011;51003;51.628;6.670;2023-05-24T07:04:07;9.53;;;2.90;;
64595;SDS011;51003;51.628;6.670;2023-05-24T07:06:33;13.27;;;3.40;;
64595;SDS011;51003;51.628;6.670;2023-05-24T07:08:59;11.03;;;3.30;;
64595;SDS011;51003;51.628;6.670;2023-05-24T07:11:26;13.70;;;3.30;;
64595;SDS011;51003;51.628;6.670;2023-05-24T07:13:52;13.53;;;2.80;;
64595;SDS011;51003;51.628;6.670;2023-05-24T07:16:17;11.30;;;3.43;;
64595;SDS011;51003;51.628;6.670;2023-05-24T07:18:42;12.27;;;3.10;;
64595;SDS011;51003;51.628;6.670;2023-05-24T07:21:07;11.80;;;2.80;;
64595;SDS011;51003;51.628;6.670;2023-05-24T07:23:33;15.07;;;3.70;;
64595;SDS011;51003;51.628;6.670;2023-05-24T07:25:59;10.97;;;2.77;;
64595;SDS011;51003;51.628;6.670;2023-05-24T07:28:24;11.60;;;3.50;;
64595;SDS011;51003;51.628;6.670;2023-05-24T07:30:50;18.60;;;3.80;;
64595;SDS011;51003;51.628;6.670;2023-05-24T07:33:15;10.17;;;2.97;;
64595;SDS011;51003;51.628;6.670;2023-05-24T07:35:41;8.07;;;3.17;;
64595;SDS011;51003;51.628;6.670;2023-05-24T07:38:06;9.50;;;3.27;;
64595;SDS011;51003;51.628;6.670;2023-05-24T07:40:32;12.00;;;3.50;;
64595;SDS011;51003;51.628;6.670;2023-05-24T07:42:57;16.43;;;3.73;;
64595;SDS011;51003;51.628;6.670;2023-05-24T07:45:22;14.50;;;3.33;;
64595;SDS011;51003;51.628;6.670;2023-05-24T07:47:48;9.70;;;3.17;;
64595;SDS011;51003;51.628;6.670;2023-05-24T07:50:13;8.00;;;2.80;;
64595;SDS011;51003;51.628;6.670;2023-05-24T07:52:38;12.23;;;3.20;;
64595;SDS011;51003;51.628;6.670;2023-05-24T07:55:04;10.63;;;3.00;;
64595;SDS011;51003;51.628;6.670;2023-05-24T07:57:30;11.90;;;3.23;;
64595;SDS011;51003;51.628;6.670;2023-05-24T07:59:55;8.30;;;2.80;;
64595;SDS011;51003;51.628;6.670;2023-05-24T08:02:21;18.67;;;3.70;;
64595;SDS011;51003;51.628;6.670;2023-05-24T08:04:46;12.73;;;3.40;;
64595;SDS011;51003;51.628;6.670;2023-05-24T08:07:12;11.43;;;3.17;;
64595;SDS011;51003;51.628;6.670;2023-05-24T08:09:38;6.90;;;3.30;;
64595;SDS011;51003;51.628;6.670;2023-05-24T08:12:04;11.73;;;3.30;;
64595;SDS011;51003;51.628;6.670;2023-05-24T08:14:30;11.90;;;3.30;;
64595;SDS011;51003;51.628;6.670;2023-05-24T08:16:55;12.93;;;3.30;;
64595;SDS011;51003;51.628;6.670;2023-05-24T08:19:21;9.00;;;3.10;;
64595;SDS011;51003;51.628;6.670;2023-05-24T08:21:47;16.03;;;2.90;;
64595;SDS011;51003;51.628;6.670;2023-05-24T08:24:12;12.83;;;3.63;;
64595;SDS011;51003;51.628;6.670;2023-05-24T08:26:38;9.23;;;3.50;;
64595;SDS011;51003;51.628;6.670;2023-05-24T08:29:03;9.90;;;3.23;;
64595;SDS011;51003;51.628;6.670;2023-05-24T08:31:29;7.27;;;3.03;;
64595;SDS011;51003;51.628;6.670;2023-05-24T08:33:56;11.97;;;3.73;;
64595;SDS011;51003;51.628;6.670;2023-05-24T08:36:22;12.57;;;3.50;;
64595;SDS011;51003;51.628;6.670;2023-05-24T08:38:47;6.57;;;2.77;;
64595;SDS011;51003;51.628;6.670;2023-05-24T08:41:12;8.20;;;2.83;;
64595;SDS011;51003;51.628;6.670;2023-05-24T08:43:38;9.67;;;3.50;;
64595;SDS011;51003;51.628;6.670;2023-05-24T08:46:06;8.90;;;3.30;;
64595;SDS011;51003;51.628;6.670;2023-05-24T08:48:31;8.93;;;3.40;;
64595;SDS011;51003;51.628;6.670;2023-05-24T08:50:58;11.80;;;3.30;;
64595;SDS011;51003;51.628;6.670;2023-05-24T08:53:24;12.07;;;3.30;;
64595;SDS011;51003;51.628;6.670;2023-05-24T08:55:50;9.03;;;2.87;;
64595;SDS011;51003;51.628;6.670;2023-05-24T08:58:19;10.67;;;3.03;;
64595;SDS011;51003;51.628;6.670;2023-05-24T09:00:45;8.30;;;3.10;;
64595;SDS011;51003;51.628;6.670;2023-05-24T09:03:11;9.27;;;3.03;;
64595;SDS011;51003;51.628;6.670;2023-05-24T09:05:36;7.97;;;2.97;;
64595;SDS011;51003;51.628;6.670;2023-05-24T09:08:05;15.27;;;3.67;;
64595;SDS011;51003;51.628;6.670;2023-05-24T09:10:31;8.67;;;3.83;;
64595;SDS011;51003;51.628;6.670;2023-05-24T09:12:57;10.90;;;3.70;;
64595;SDS011;51003;51.628;6.670;2023-05-24T09:15:26;4.57;;;3.00;;
64595;SDS011;51003;51.628;6.670;2023-05-24T09:17:52;8.47;;;2.90;;
64595;SDS011;51003;51.628;6.670;2023-05-24T09:20:17;6.63;;;2.80;;
64595;SDS011;51003;51.628;6.670;2023-05-24T09:22:44;7.83;;;2.80;;
64595;SDS011;51003;51.628;6.670;2023-05-24T09:25:14;7.10;;;3.20;;
64595;SDS011;51003;51.628;6.670;2023-05-24T09:27:40;7.90;;;2.90;;
64595;SDS011;51003;51.628;6.670;2023-05-24T09:30:08;8.83;;;3.50;;
64595;SDS011;51003;51.628;6.670;2023-05-24T09:32:36;8.20;;;3.40;;
64595;SDS011;51003;51.628;6.670;2023-05-24T09:35:01;6.10;;;2.70;;
64595;SDS011;51003;51.628;6.670;2023-05-24T09:37:27;7.93;;;3.30;;
64595;SDS011;51003;51.628;6.670;2023-05-24T09:39:53;6.73;;;3.10;;
64595;SDS011;51003;51.628;6.670;2023-05-24T09:42:20;9.00;;;3.00;;
64595;SDS011;51003;51.628;6.670;2023-05-24T09:45:04;4.43;;;2.70;;
64595;SDS011;51003;51.628;6.670;2023-05-24T09:47:43;5.27;;;2.83;;
64595;SDS011;51003;51.628;6.670;2023-05-24T09:50:13;5.30;;;2.80;;
64595;SDS011;51003;51.628;6.670;2023-05-24T09:52:39;5.23;;;2.80;;
64595;SDS011;51003;51.628;6.670;2023-05-24T09:57:37;9.33;;;2.87;;
64595;SDS011;51003;51.628;6.670;2023-05-24T10:00:06;3.63;;;2.60;;
64595;SDS011;51003;51.628;6.670;2023-05-24T10:02:42;5.80;;;2.20;;
64595;SDS011;51003;51.628;6.670;2023-05-24T10:05:09;6.37;;;2.37;;
64595;SDS011;51003;51.628;6.670;2023-05-24T10:07:35;5.40;;;2.43;;
64595;SDS011;51003;51.628;6.670;2023-05-24T10:10:03;8.57;;;2.50;;
64595;SDS011;51003;51.628;6.670;2023-05-24T10:12:29;5.03;;;2.73;;
64595;SDS011;51003;51.628;6.670;2023-05-24T10:14:55;4.07;;;2.40;;
64595;SDS011;51003;51.628;6.670;2023-05-24T10:17:22;5.40;;;2.27;;
64595;SDS011;51003;51.628;6.670;2023-05-24T10:19:51;7.13;;;2.83;;
64595;SDS011;51003;51.628;6.670;2023-05-24T10:22:17;5.43;;;2.57;;
64595;SDS011;51003;51.628;6.670;2023-05-24T10:24:46;3.97;;;2.60;;
64595;SDS011;51003;51.628;6.670;2023-05-24T10:27:18;6.03;;;2.60;;
64595;SDS011;51003;51.628;6.670;2023-05-24T10:32:12;6.53;;;3.20;;
64595;SDS011;51003;51.628;6.670;2023-05-24T10:34:39;5.50;;;2.83;;
64595;SDS011;51003;51.628;6.670;2023-05-24T10:37:07;4.97;;;2.83;;
64595;SDS011;51003;51.628;6.670;2023-05-24T10:39:33;4.70;;;2.50;;
64595;SDS011;51003;51.628;6.670;2023-05-24T10:42:05;3.93;;;2.40;;
64595;SDS011;51003;51.628;6.670;2023-05-24T10:44:31;3.80;;;2.60;;
64595;SDS011;51003;51.628;6.670;2023-05-24T10:49:30;6.63;;;2.90;;
64595;SDS011;51003;51.628;6.670;2023-05-24T10:51:59;5.50;;;2.90;;
64595;SDS011;51003;51.628;6.670;2023-05-24T10:54:26;4.67;;;2.70;;
64595;SDS011;51003;51.628;6.670;2023-05-24T10:56:52;7.43;;;3.00;;
64595;SDS011;51003;51.628;6.670;2023-05-24T10:59:36;6.97;;;2.77;;
64595;SDS011;51003;51.628;6.670;2023-05-24T11:02:07;6.33;;;2.77;;
64595;SDS011;51003;51.628;6.670;2023-05-24T11:04:37;6.23;;;2.90;;
64595;SDS011;51003;51.628;6.670;2023-05-24T11:07:04;8.10;;;3.17;;
64595;SDS011;51003;51.628;6.670;2023-05-24T11:09:33;7.27;;;3.00;;
64595;SDS011;51003;51.628;6.670;2023-05-24T11:12:05;6.50;;;3.23;;
64595;SDS011;51003;51.628;6.670;2023-05-24T11:14:32;3.10;;;2.60;;
64595;SDS011;51003;51.628;6.670;2023-05-24T11:17:02;11.50;;;3.20;;
64595;SDS011;51003;51.628;6.670;2023-05-24T11:19:39;5.30;;;2.70;;
64595;SDS011;51003;51.628;6.670;2023-05-24T11:22:11;8.43;;;2.93;;
64595;SDS011;51003;51.628;6.670;2023-05-24T11:24:39;8.33;;;3.30;;
64595;SDS011;51003;51.628;6.670;2023-05-24T11:27:05;6.67;;;3.00;;
64595;SDS011;51003;51.628;6.670;2023-05-24T11:29:31;11.80;;;3.30;;
64595;SDS011;51003;51.628;6.670;2023-05-24T11:31:57;10.43;;;3.43;;
64595;SDS011;51003;51.628;6.670;2023-05-24T11:34:28;8.53;;;3.30;;
64595;SDS011;51003;51.628;6.670;2023-05-24T11:36:56;6.57;;;2.97;;
64595;SDS011;51003;51.628;6.670;2023-05-24T11:39:23;4.73;;;3.00;;
64595;SDS011;51003;51.628;6.670;2023-05-24T11:41:49;8.80;;;3.10;;
64595;SDS011;51003;51.628;6.670;2023-05-24T11:44:16;6.53;;;3.60;;
64595;SDS011;51003;51.628;6.670;2023-05-24T11:46:42;8.80;;;3.17;;
64595;SDS011;51003;51.628;6.670;2023-05-24T11:49:11;6.83;;;3.33;;
64595;SDS011;51003;51.628;6.670;2023-05-24T11:51:37;8.70;;;3.30;;
64595;SDS011;51003;51.628;6.670;2023-05-24T11:54:02;5.50;;;3.10;;
64595;SDS011;51003;51.628;6.670;2023-05-24T11:56:28;11.87;;;3.17;;
64595;SDS011;51003;51.628;6.670;2023-05-24T11:59:16;9.13;;;3.00;;
64595;SDS011;51003;51.628;6.670;2023-05-24T12:01:40;5.80;;;3.30;;
64595;SDS011;51003;51.628;6.670;2023-05-24T12:04:06;8.53;;;3.30;;
64595;SDS011;51003;51.628;6.670;2023-05-24T12:06:39;5.77;;;3.03;;
64595;SDS011;51003;51.628;6.670;2023-05-24T12:09:05;5.70;;;2.80;;
64595;SDS011;51003;51.628;6.670;2023-05-24T12:11:33;3.67;;;2.77;;
64595;SDS011;51003;51.628;6.670;2023-05-24T12:13:59;7.93;;;3.13;;
64595;SDS011;51003;51.628;6.670;2023-05-24T12:16:25;7.03;;;3.33;;
64595;SDS011;51003;51.628;6.670;2023-05-24T12:18:51;9.27;;;3.30;;
64595;SDS011;51003;51.628;6.670;2023-05-24T12:21:16;7.27;;;3.43;;
64595;SDS011;51003;51.628;6.670;2023-05-24T12:23:45;6.27;;;2.93;;
64595;SDS011;51003;51.628;6.670;2023-05-24T12:26:11;7.80;;;3.43;;
64595;SDS011;51003;51.628;6.670;2023-05-24T12:28:37;6.33;;;3.40;;
64595;SDS011;51003;51.628;6.670;2023-05-24T12:31:03;6.80;;;3.07;;
64595;SDS011;51003;51.628;6.670;2023-05-24T12:33:29;6.50;;;3.27;;
64595;SDS011;51003;51.628;6.670;2023-05-24T12:35:55;5.03;;;2.90;;
64595;SDS011;51003;51.628;6.670;2023-05-24T12:38:22;5.83;;;3.10;;
64595;SDS011;51003;51.628;6.670;2023-05-24T12:40:51;6.47;;;3.13;;
64595;SDS011;51003;51.628;6.670;2023-05-24T12:43:18;5.37;;;2.47;;
64595;SDS011;51003;51.628;6.670;2023-05-24T12:45:43;5.33;;;2.90;;
64595;SDS011;51003;51.628;6.670;2023-05-24T12:48:09;9.47;;;3.70;;
64595;SDS011;51003;51.628;6.670;2023-05-24T12:50:34;7.10;;;3.23;;
64595;SDS011;51003;51.628;6.670;2023-05-24T12:52:59;5.33;;;3.27;;
64595;SDS011;51003;51.628;6.670;2023-05-24T12:55:26;8.90;;;3.20;;
64595;SDS011;51003;51.628;6.670;2023-05-24T12:57:52;5.17;;;3.40;;
64595;SDS011;51003;51.628;6.670;2023-05-24T13:00:22;6.80;;;3.20;;
64595;SDS011;51003;51.628;6.670;2023-05-24T13:02:48;7.73;;;3.40;;
64595;SDS011;51003;51.628;6.670;2023-05-24T13:05:14;6.60;;;3.63;;
64595;SDS011;51003;51.628;6.670;2023-05-24T13:07:41;3.70;;;2.90;;
64595;SDS011;51003;51.628;6.670;2023-05-24T13:10:08;6.47;;;3.23;;
64595;SDS011;51003;51.628;6.670;2023-05-24T13:12:34;5.93;;;3.10;;
64595;SDS011;51003;51.628;6.670;2023-05-24T13:14:59;4.83;;;3.23;;
64595;SDS011;51003;51.628;6.670;2023-05-24T13:17:25;4.93;;;3.33;;
64595;SDS011;51003;51.628;6.670;2023-05-24T13:19:51;6.27;;;3.30;;
64595;SDS011;51003;51.628;6.670;2023-05-24T13:22:16;6.43;;;3.50;;
64595;SDS011;51003;51.628;6.670;2023-05-24T13:24:41;5.17;;;3.17;;
64595;SDS011;51003;51.628;6.670;2023-05-24T13:27:07;3.67;;;2.73;;
64595;SDS011;51003;51.628;6.670;2023-05-24T13:29:33;8.73;;;3.40;;
64595;SDS011;51003;51.628;6.670;2023-05-24T13:31:58;7.67;;;3.70;;
64595;SDS011;51003;51.628;6.670;2023-05-24T13:34:23;7.90;;;3.80;;
64595;SDS011;51003;51.628;6.670;2023-05-24T13:36:51;4.60;;;3.20;;
64595;SDS011;51003;51.628;6.670;2023-05-24T13:39:17;5.63;;;3.23;;
64595;SDS011;51003;51.628;6.670;2023-05-24T13:41:44;6.97;;;3.70;;
64595;SDS011;51003;51.628;6.670;2023-05-24T13:44:10;5.57;;;3.07;;
64595;SDS011;51003;51.628;6.670;2023-05-24T13:46:36;6.70;;;3.70;;
64595;SDS011;51003;51.628;6.670;2023-05-24T13:49:02;5.70;;;3.43;;
64595;SDS011;51003;51.628;6.670;2023-05-24T13:51:28;6.13;;;3.57;;
64595;SDS011;51003;51.628;6.670;2023-05-24T13:53:54;3.53;;;2.93;;
64595;SDS011;51003;51.628;6.670;2023-05-24T13:56:20;6.47;;;3.53;;
64595;SDS011;51003;51.628;6.670;2023-05-24T13:58:46;5.30;;;3.30;;
64595;SDS011;51003;51.628;6.670;2023-05-24T14:01:11;5.10;;;3.20;;
64595;SDS011;51003;51.628;6.670;2023-05-24T14:03:37;4.93;;;3.50;;
64595;SDS011;51003;51.628;6.670;2023-05-24T14:06:04;6.80;;;3.47;;
64595;SDS011;51003;51.628;6.670;2023-05-24T14:08:31;7.70;;;3.50;;
64595;SDS011;51003;51.628;6.670;2023-05-24T14:10:57;6.03;;;3.53;;
64595;SDS011;51003;51.628;6.670;2023-05-24T14:13:22;6.13;;;3.30;;
64595;SDS011;51003;51.628;6.670;2023-05-24T14:15:47;8.17;;;4.20;;
64595;SDS011;51003;51.628;6.670;2023-05-24T14:18:14;5.10;;;3.10;;
64595;SDS011;51003;51.628;6.670;2023-05-24T14:20:40;5.23;;;3.27;;
64595;SDS011;51003;51.628;6.670;2023-05-24T14:23:06;4.87;;;3.30;;
64595;SDS011;51003;51.628;6.670;2023-05-24T14:25:32;5.57;;;3.40;;
64595;SDS011;51003;51.628;6.670;2023-05-24T14:27:57;6.20;;;3.63;;
64595;SDS011;51003;51.628;6.670;2023-05-24T14:30:24;6.93;;;3.47;;
64595;SDS011;51003;51.628;6.670;2023-05-24T14:32:50;7.90;;;3.50;;
64595;SDS011;51003;51.628;6.670;2023-05-24T14:35:16;6.03;;;3.60;;
64595;SDS011;51003;51.628;6.670;2023-05-24T14:37:41;8.20;;;4.00;;
64595;SDS011;51003;51.628;6.670;2023-05-24T14:40:07;8.87;;;3.67;;
64595;SDS011;51003;51.628;6.670;2023-05-24T14:42:33;7.20;;;3.43;;
64595;SDS011;51003;51.628;6.670;2023-05-24T14:44:59;8.50;;;3.90;;
64595;SDS011;51003;51.628;6.670;2023-05-24T14:47:24;7.40;;;3.60;;
64595;SDS011;51003;51.628;6.670;2023-05-24T14:49:50;5.93;;;3.23;;
64595;SDS011;51003;51.628;6.670;2023-05-24T14:52:16;5.20;;;3.33;;
64595;SDS011;51003;51.628;6.670;2023-05-24T14:54:41;6.63;;;3.80;;
64595;SDS011;51003;51.628;6.670;2023-05-24T14:57:07;6.37;;;3.70;;
64595;SDS011;51003;51.628;6.670;2023-05-24T14:59:33;5.40;;;3.20;;
64595;SDS011;51003;51.628;6.670;2023-05-24T15:01:58;3.83;;;3.43;;
64595;SDS011;51003;51.628;6.670;2023-05-24T15:04:24;7.73;;;3.20;;
64595;SDS011;51003;51.628;6.670;2023-05-24T15:06:51;6.27;;;3.40;;